Time;durP1;ratioP1;P1;durP2;ratioP2;P2;SDS_P1;SDS_P2;PMS_P1;PMS_P2;Temp;Humidity;BMP_temperature;BMP_pressure;BME280_temperature;BME280_humidity;BME280_pressure;Samples;Min_cycle;Max_cycle;Signal;HPM_P1;HPM_P2
2021/03/06 00:00:34;;;;;;;19.23;8.32;;;-1.60;99.90;;;-0.83;78.37;102342.72;5055780;28;20025;-78
2021/03/06 00:03:00;;;;;;;15.43;8.23;;;-1.60;99.90;;;-0.90;78.04;102342.84;5053915;28;20098;-78
2021/03/06 00:05:28;;;;;;;14.68;8.65;;;-1.60;99.90;;;-0.90;78.42;102345.59;5053333;28;20033;-78
2021/03/06 00:07:54;;;;;;;14.32;8.20;;;-1.60;99.90;;;-0.84;78.76;102347.38;5049120;28;20029;-78
2021/03/06 00:10:23;;;;;;;15.18;8.18;;;-1.60;99.90;;;-0.80;78.61;102351.28;5052869;28;20124;-78
2021/03/06 00:12:50;;;;;;;15.50;7.93;;;-1.50;99.90;;;-0.83;78.19;102348.19;5039870;28;20033;-78
2021/03/06 00:15:27;;;;;;;16.05;7.18;;;-1.50;99.90;;;-0.99;79.06;102348.94;5042646;28;20025;-78
2021/03/06 00:17:54;;;;;;;15.52;7.68;;;-1.70;99.90;;;-1.05;78.88;102350.75;5042425;28;20441;-79
2021/03/06 00:20:21;;;;;;;18.55;8.63;;;-1.70;99.90;;;-1.02;79.04;102355.75;5044742;28;20036;-78
2021/03/06 00:22:50;;;;;;;19.02;8.20;;;-1.70;99.90;;;-0.94;78.76;102354.56;5040637;28;20469;-77
2021/03/06 00:25:18;;;;;;;18.70;8.35;;;-1.70;99.90;;;-0.87;79.13;102358.84;5051630;28;20067;-77
2021/03/06 00:27:44;;;;;;;15.75;8.65;;;-1.60;99.90;;;-0.89;78.28;102357.41;5043711;28;20033;-77
2021/03/06 00:30:15;;;;;;;21.10;9.52;;;-1.70;99.90;;;-0.96;78.36;102370.44;5046625;28;20040;-77
2021/03/06 00:32:42;;;;;;;21.65;9.60;;;-1.70;99.90;;;-1.09;78.38;102364.09;5047635;28;20333;-76
2021/03/06 00:35:10;;;;;;;16.10;9.00;;;-1.80;99.90;;;-1.15;79.25;102377.91;5042750;28;20029;-78
2021/03/06 00:37:38;;;;;;;14.80;8.95;;;-1.90;99.90;;;-1.17;79.12;102366.38;5046306;28;20036;-78
2021/03/06 00:40:10;;;;;;;15.98;7.97;;;-1.90;99.90;;;-1.38;78.95;102364.22;5048315;28;20112;-79
2021/03/06 00:42:36;;;;;;;15.48;7.57;;;-2.10;99.90;;;-1.62;78.97;102366.09;5058648;28;20427;-79
2021/03/06 00:45:06;;;;;;;12.05;7.18;;;-2.30;99.90;;;-1.78;79.22;102367.63;5044441;28;20036;-80
2021/03/06 00:47:32;;;;;;;16.83;8.38;;;-2.40;99.90;;;-1.81;80.17;102359.03;5049306;28;20025;-82
2021/03/06 00:49:58;;;;;;;15.93;8.38;;;-2.40;99.90;;;-1.88;80.38;102366.50;5063257;28;20056;-80
2021/03/06 00:52:25;;;;;;;21.63;9.82;;;-2.50;99.90;;;-1.99;81.90;102357.19;5059985;28;20037;-79
2021/03/06 00:54:51;;;;;;;18.30;8.73;;;-2.60;99.90;;;-1.97;82.33;102348.75;5055108;28;20055;-80
2021/03/06 00:57:16;;;;;;;19.40;10.02;;;-2.60;99.90;;;-2.00;82.59;102347.31;5061758;28;20037;-80
2021/03/06 00:59:42;;;;;;;15.95;9.73;;;-2.60;99.90;;;-1.94;82.72;102343.63;5045911;28;20040;-79
2021/03/06 01:02:10;;;;;;;17.17;9.23;;;-2.60;99.90;;;-1.87;82.95;102351.75;5051147;28;20500;-79
2021/03/06 01:04:36;;;;;;;17.02;9.15;;;-2.50;99.90;;;-1.80;82.90;102355.22;5047795;28;20025;-79
2021/03/06 01:07:03;;;;;;;17.27;9.57;;;-2.50;99.90;;;-1.74;82.33;102346.06;5039875;28;20033;-79
2021/03/06 01:09:30;;;;;;;16.00;7.93;;;-2.40;99.90;;;-1.70;81.88;102356.31;5054303;28;20358;-79
2021/03/06 01:11:55;;;;;;;17.70;9.30;;;-2.50;99.90;;;-1.69;81.63;102346.19;5048570;28;20099;-78
2021/03/06 01:14:21;;;;;;;17.23;9.43;;;-2.40;99.90;;;-1.80;81.96;102344.28;5054043;28;20384;-80
2021/03/06 01:16:48;;;;;;;14.80;8.50;;;-2.50;99.90;;;-1.86;81.66;102353.44;5051578;28;20421;-78
2021/03/06 01:19:14;;;;;;;17.50;8.63;;;-2.50;99.90;;;-1.89;82.32;102348.41;5035202;28;20041;-77
2021/03/06 01:21:40;;;;;;;17.00;8.60;;;-2.60;99.90;;;-1.98;82.50;102347.06;5035572;28;20496;-78
2021/03/06 01:24:06;;;;;;;18.05;9.38;;;-2.60;99.90;;;-2.04;82.54;102350.75;5049104;28;20045;-77
2021/03/06 01:26:32;;;;;;;16.83;8.93;;;-2.70;99.90;;;-1.99;82.86;102334.47;5057995;28;20036;-75
2021/03/06 01:28:58;;;;;;;20.10;9.60;;;-2.70;99.90;;;-1.92;83.71;102340.66;5057927;28;20021;-78
2021/03/06 01:31:24;;;;;;;22.35;8.93;;;-2.60;99.90;;;-1.91;83.12;102337.69;5053786;28;20037;-78
2021/03/06 01:33:50;;;;;;;17.50;9.43;;;-2.60;99.90;;;-1.95;82.92;102332.91;5052376;28;20092;-80
2021/03/06 01:36:15;;;;;;;17.40;8.52;;;-2.70;99.90;;;-1.99;83.22;102338.00;5053060;28;20029;-77
2021/03/06 01:38:41;;;;;;;17.40;10.02;;;-2.70;99.90;;;-2.02;83.12;102343.97;5048502;28;20044;-77
2021/03/06 01:41:07;;;;;;;16.40;8.90;;;-2.70;99.90;;;-1.97;83.63;102335.06;5063498;28;20033;-79
2021/03/06 01:43:33;;;;;;;17.83;9.82;;;-2.70;99.90;;;-1.95;82.47;102339.22;5049703;28;20021;-77
2021/03/06 01:45:59;;;;;;;18.38;9.45;;;-2.70;99.90;;;-2.07;82.88;102340.25;5055376;28;20025;-78
2021/03/06 01:48:29;;;;;;;17.58;9.45;;;-2.70;99.90;;;-2.28;83.13;102339.69;5049265;28;20376;-77
2021/03/06 01:50:55;;;;;;;15.48;8.40;;;-2.90;99.90;;;-2.26;83.39;102334.84;5057553;28;20029;-78
2021/03/06 01:53:23;;;;;;;17.85;9.07;;;-2.90;99.90;;;-2.23;84.45;102339.84;5075283;28;20452;-77
2021/03/06 01:55:49;;;;;;;18.15;9.18;;;-2.90;99.90;;;-2.14;84.86;102337.63;5068817;28;20025;-77
2021/03/06 01:58:16;;;;;;;20.85;10.27;;;-2.80;99.90;;;-2.09;84.71;102339.66;5064563;28;20056;-79
2021/03/06 02:00:45;;;;;;;19.40;9.20;;;-2.80;99.90;;;-2.06;84.23;102331.00;5058588;28;20454;-81
2021/03/06 02:03:13;;;;;;;18.42;9.50;;;-2.80;99.90;;;-2.16;84.26;102324.19;5045969;28;20035;-77
2021/03/06 02:05:39;;;;;;;20.17;8.93;;;-2.80;99.90;;;-2.20;84.57;102333.91;5052836;28;20078;-77
2021/03/06 02:08:05;;;;;;;16.23;9.25;;;-2.90;99.90;;;-2.13;84.45;102331.09;5047763;28;20057;-78
2021/03/06 02:10:43;;;;;;;12.52;8.45;;;-2.90;99.90;;;-2.17;84.74;102325.25;5051720;28;20036;-80
2021/03/06 02:13:52;;;;;;;18.08;9.25;;;-2.90;99.90;;;-2.19;84.71;102326.53;5050498;28;20037;-79
2021/03/06 02:16:48;;;;;;;18.27;9.55;;;-2.90;99.90;;;-2.20;84.87;102330.34;5055001;28;20056;-81
2021/03/06 02:19:48;;;;;;;20.10;9.63;;;-2.90;99.90;;;-2.23;85.03;102326.16;5048907;28;20048;-80
2021/03/06 02:23:22;;;;;;;17.77;9.27;;;-3.00;99.90;;;-2.24;84.76;102329.97;5065362;28;20578;-78
2021/03/06 02:26:18;;;;;;;19.23;10.10;;;-3.00;99.90;;;-2.23;85.40;102331.66;5056363;28;20025;-77
2021/03/06 02:29:21;;;;;;;13.95;8.85;;;-3.00;99.90;;;-2.15;85.30;102334.03;5050630;28;20032;-79
2021/03/06 02:31:53;;;;;;;18.42;10.20;;;-2.90;99.90;;;-2.20;85.57;102333.91;5070822;28;20116;-77
2021/03/06 02:34:30;;;;;;;17.50;9.40;;;-3.00;99.90;;;-2.25;85.80;102325.53;5071125;28;20485;-77
2021/03/06 02:37:06;;;;;;;16.23;8.88;;;-3.00;99.90;;;-2.27;85.88;102330.44;5051664;28;20089;-79
2021/03/06 02:39:41;;;;;;;13.40;7.72;;;-3.00;99.90;;;-2.35;85.06;102325.31;5037097;28;20053;-78
2021/03/06 02:42:15;;;;;;;18.73;9.93;;;-3.00;99.90;;;-2.41;86.00;102314.44;5069808;28;20132;-78
2021/03/06 02:44:42;;;;;;;19.08;8.77;;;-3.10;99.90;;;-2.47;85.84;102323.59;5043071;28;20033;-77
2021/03/06 02:47:11;;;;;;;18.95;9.35;;;-3.10;99.90;;;-2.46;86.26;102323.34;5046548;28;20041;-77
2021/03/06 02:49:37;;;;;;;18.40;9.55;;;-3.10;99.90;;;-2.46;86.34;102322.50;5047856;28;20029;-78
2021/03/06 02:52:03;;;;;;;18.02;9.10;;;-3.10;99.90;;;-2.47;86.31;102318.91;5054568;28;20048;-80
2021/03/06 02:54:29;;;;;;;19.10;10.23;;;-3.20;99.90;;;-2.41;86.07;102328.13;5056855;28;20438;-82
2021/03/06 02:56:55;;;;;;;22.90;9.40;;;-3.20;99.90;;;-2.45;86.45;102327.75;5038489;28;20033;-80
2021/03/06 02:59:54;;;;;;;13.45;8.55;;;-3.20;99.90;;;-2.46;86.04;102334.28;5041782;28;20029;-80
2021/03/06 03:03:05;;;;;;;15.57;8.80;;;-3.20;99.90;;;-2.48;86.05;102338.31;5045055;28;20040;-78
2021/03/06 03:06:04;;;;;;;18.42;9.85;;;-3.20;99.90;;;-2.47;86.40;102329.06;5036416;28;20040;-78
2021/03/06 03:08:46;;;;;;;17.80;8.68;;;-3.20;99.90;;;-2.48;86.83;102321.91;5036132;28;20041;-77
2021/03/06 03:11:21;;;;;;;21.88;9.70;;;-3.20;99.90;;;-2.53;86.71;102324.47;5036341;28;20136;-77
2021/03/06 03:14:01;;;;;;;16.88;9.15;;;-3.20;99.90;;;-2.53;86.96;102324.47;5034602;28;20111;-79
2021/03/06 03:16:44;;;;;;;17.23;9.77;;;-3.20;99.90;;;-2.53;86.81;102322.59;5048912;28;20029;-79
2021/03/06 03:19:54;;;;;;;16.33;9.00;;;-3.20;99.90;;;-2.47;86.94;102326.31;5053601;28;20508;-79
2021/03/06 03:22:26;;;;;;;21.25;9.13;;;-3.20;99.90;;;-2.50;86.71;102324.84;5059249;28;20037;-82
2021/03/06 03:24:56;;;;;;;18.60;10.45;;;-3.20;99.90;;;-2.57;86.72;102326.88;5083132;28;20068;-79
2021/03/06 03:27:25;;;;;;;18.17;9.23;;;-3.30;99.90;;;-2.59;86.73;102319.94;5058331;28;20037;-78
2021/03/06 03:29:53;;;;;;;14.07;8.32;;;-3.30;99.90;;;-2.54;86.77;102334.63;5042627;28;20141;-80
2021/03/06 03:32:22;;;;;;;16.23;9.20;;;-3.30;99.90;;;-2.50;87.35;102324.84;5052874;28;20061;-78
2021/03/06 03:34:51;;;;;;;18.45;9.23;;;-3.30;99.90;;;-2.50;86.64;102333.06;5044557;28;20024;-79
2021/03/06 03:37:20;;;;;;;14.43;8.20;;;-3.20;99.90;;;-2.57;86.63;102326.03;5047108;28;20384;-79
2021/03/06 03:39:49;;;;;;;19.40;9.65;;;-3.30;99.90;;;-2.59;86.80;102319.94;5042556;28;20022;-79
2021/03/06 03:42:21;;;;;;;14.65;9.00;;;-3.30;99.90;;;-2.62;86.82;102313.03;5041065;28;20021;-79
2021/03/06 03:44:50;;;;;;;17.58;9.02;;;-3.30;99.90;;;-2.70;86.40;102313.38;5045726;28;20017;-81
2021/03/06 03:47:19;;;;;;;17.52;8.32;;;-3.40;99.90;;;-2.79;86.56;102312.81;5047526;28;20427;-77
2021/03/06 03:49:45;;;;;;;20.42;9.07;;;-3.50;99.90;;;-2.83;86.08;102322.56;5046878;28;20032;-79
2021/03/06 03:52:12;;;;;;;15.95;8.07;;;-3.50;99.90;;;-2.85;85.94;102327.41;5044713;28;20029;-79
2021/03/06 03:54:40;;;;;;;16.67;8.73;;;-3.60;99.90;;;-2.85;86.72;102316.47;5065539;28;20079;-79
2021/03/06 03:57:09;;;;;;;15.15;7.93;;;-3.60;99.90;;;-2.82;86.62;102323.38;5049373;28;20447;-76
2021/03/06 03:59:35;;;;;;;15.52;8.52;;;-3.60;99.90;;;-2.89;86.70;102319.91;5037776;28;20176;-79
2021/03/06 04:02:01;;;;;;;14.95;8.38;;;-3.60;99.90;;;-2.88;87.13;102322.41;5055752;28;20041;-78
2021/03/06 04:04:31;;;;;;;17.52;9.68;;;-3.60;99.90;;;-2.95;86.98;102335.31;5047495;28;20112;-76
2021/03/06 04:07:01;;;;;;;19.98;9.13;;;-3.70;99.90;;;-2.99;87.15;102330.53;5047265;28;20017;-77
2021/03/06 04:09:27;;;;;;;17.33;9.32;;;-3.70;99.90;;;-2.95;87.54;102335.31;5045729;28;20346;-80
2021/03/06 04:11:54;;;;;;;15.43;8.75;;;-3.70;99.90;;;-2.90;87.56;102335.47;5043378;28;20030;-77
2021/03/06 04:14:21;;;;;;;16.10;8.48;;;-3.70;99.90;;;-2.89;87.76;102342.59;5049272;28;20055;-79
2021/03/06 04:16:47;;;;;;;15.35;8.63;;;-3.60;99.90;;;-2.87;87.86;102329.56;5053177;28;20025;-78
2021/03/06 04:19:13;;;;;;;14.63;8.60;;;-3.60;99.90;;;-2.86;87.54;102336.66;5041771;28;20033;-80
2021/03/06 04:21:39;;;;;;;15.85;8.15;;;-3.60;99.90;;;-2.94;87.36;102339.72;5042705;28;20388;-80
2021/03/06 04:24:06;;;;;;;13.57;8.50;;;-3.70;99.90;;;-2.97;87.73;102345.66;5051600;28;20045;-79
2021/03/06 04:26:34;;;;;;;14.13;8.55;;;-3.70;99.90;;;-2.99;87.85;102352.41;5047855;28;20017;-77
2021/03/06 04:29:00;;;;;;;15.82;9.55;;;-3.70;99.90;;;-2.97;88.25;102348.38;5049489;28;20034;-79
2021/03/06 04:31:26;;;;;;;16.98;8.77;;;-3.70;99.90;;;-2.94;88.33;102344.34;5061735;28;20021;-78
2021/03/06 04:33:53;;;;;;;13.30;8.65;;;-3.70;99.90;;;-2.92;88.37;102348.53;5042071;28;20029;-78
2021/03/06 04:36:20;;;;;;;16.73;9.00;;;-3.70;99.90;;;-2.97;88.20;102350.28;5049355;28;20113;-77
2021/03/06 04:38:45;;;;;;;16.48;7.88;;;-3.70;99.90;;;-2.98;88.29;102349.44;5048135;28;20029;-78
2021/03/06 04:41:11;;;;;;;16.77;8.63;;;-3.70;99.90;;;-3.00;87.98;102351.56;5064465;28;20032;-80
2021/03/06 04:43:37;;;;;;;15.02;8.60;;;-3.70;99.90;;;-2.97;88.21;102350.28;5048022;28;20047;-79
2021/03/06 04:46:03;;;;;;;16.48;8.95;;;-3.70;99.90;;;-3.01;88.34;102347.16;5049506;28;20485;-79
2021/03/06 04:48:29;;;;;;;14.60;9.00;;;-3.70;99.90;;;-3.05;88.31;102348.66;5047975;28;20021;-78
2021/03/06 04:50:55;;;;;;;15.25;8.90;;;-3.80;99.90;;;-3.10;88.07;102353.16;5062618;28;20020;-80
2021/03/06 04:53:22;;;;;;;19.67;8.25;;;-3.80;99.90;;;-3.13;88.44;102348.13;5070849;28;20024;-78
2021/03/06 04:55:48;;;;;;;11.82;8.35;;;-3.80;99.90;;;-3.20;88.18;102340.84;5069141;28;20027;-78
2021/03/06 04:58:15;;;;;;;17.05;9.52;;;-3.90;99.90;;;-3.16;89.39;102345.84;5067013;28;20037;-77
2021/03/06 05:00:41;;;;;;;16.17;9.50;;;-3.90;99.90;;;-3.06;88.70;102343.44;5062887;28;20033;-78
2021/03/06 05:03:07;;;;;;;18.83;8.88;;;-3.80;99.90;;;-3.15;88.33;102351.13;5049456;28;20052;-77
2021/03/06 05:05:33;;;;;;;17.10;8.77;;;-3.90;99.90;;;-3.23;88.15;102348.66;5052322;28;20029;-79
2021/03/06 05:07:58;;;;;;;14.60;8.60;;;-3.90;99.90;;;-3.24;88.63;102347.81;5043624;28;20400;-80
2021/03/06 05:10:24;;;;;;;13.68;8.13;;;-4.00;99.90;;;-3.29;88.50;102346.81;5066535;28;20044;-80
2021/03/06 05:12:51;;;;;;;13.20;8.35;;;-4.00;99.90;;;-3.28;88.36;102356.72;5046969;28;20021;-79
2021/03/06 05:15:17;;;;;;;17.77;8.85;;;-4.00;99.90;;;-3.32;88.77;102347.28;5068636;28;20021;-78
2021/03/06 05:17:42;;;;;;;13.93;8.05;;;-4.10;99.90;;;-3.36;88.30;102351.53;5054464;28;20077;-79
2021/03/06 05:20:09;;;;;;;15.85;9.13;;;-4.10;99.90;;;-3.38;88.42;102351.75;5062954;28;20024;-76
2021/03/06 05:22:36;;;;;;;12.13;7.63;;;-4.10;99.90;;;-3.37;88.53;102360.78;5072216;28;20021;-77
2021/03/06 05:25:04;;;;;;;17.10;8.48;;;-4.10;99.90;;;-3.42;88.33;102366.06;5069395;28;20021;-78
2021/03/06 05:27:32;;;;;;;17.20;8.77;;;-4.10;99.90;;;-3.34;88.33;102360.34;5073366;28;20037;-79
2021/03/06 05:29:59;;;;;;;14.10;8.68;;;-4.10;99.90;;;-3.29;88.92;102371.41;5077350;28;20084;-78
2021/03/06 05:32:25;;;;;;;12.52;7.53;;;-4.10;99.90;;;-3.29;88.72;102368.69;5060091;28;20021;-77
2021/03/06 05:34:53;;;;;;;13.05;8.30;;;-4.00;99.90;;;-3.29;88.82;102374.16;5065651;28;20093;-76
2021/03/06 05:37:18;;;;;;;21.85;9.20;;;-4.00;99.90;;;-3.23;88.73;102365.06;5064807;28;20092;-79
2021/03/06 05:39:44;;;;;;;14.93;8.15;;;-4.00;99.90;;;-3.18;88.86;102362.50;5058827;28;20036;-78
2021/03/06 05:42:11;;;;;;;16.17;8.35;;;-4.00;99.90;;;-3.17;89.07;102361.41;5065115;28;20040;-78
2021/03/06 05:44:40;;;;;;;14.32;8.52;;;-3.90;99.90;;;-3.17;89.05;102360.56;5045558;28;20380;-80
2021/03/06 05:47:07;;;;;;;17.80;8.25;;;-3.90;99.90;;;-3.19;88.73;102369.03;5055641;28;20033;-79
2021/03/06 05:49:33;;;;;;;12.23;8.55;;;-3.90;99.90;;;-3.24;88.76;102366.94;5049344;28;20018;-79
2021/03/06 05:52:08;;;;;;;12.05;7.38;;;-3.90;99.90;;;-3.26;88.83;102368.25;5039865;28;20210;-79
2021/03/06 05:54:37;;;;;;;15.98;8.63;;;-4.00;99.90;;;-3.25;88.94;102369.91;5067792;28;20108;-79
2021/03/06 05:57:05;;;;;;;13.80;8.20;;;-4.00;99.90;;;-3.25;89.00;102365.28;5055473;28;20033;-80
2021/03/06 05:59:33;;;;;;;13.85;8.23;;;-4.00;99.90;;;-3.24;88.94;102364.22;5061999;28;20021;-80
2021/03/06 06:01:59;;;;;;;17.27;8.45;;;-4.00;99.90;;;-3.23;88.62;102365.91;5054921;28;20091;-82
2021/03/06 06:04:28;;;;;;;15.75;8.45;;;-4.00;99.90;;;-3.26;88.33;102360.88;5058258;28;20032;-80
2021/03/06 06:06:59;;;;;;;14.10;8.00;;;-4.00;99.90;;;-3.29;88.19;102363.22;5060847;28;20033;-79
2021/03/06 06:09:25;;;;;;;17.48;9.05;;;-4.00;99.90;;;-3.23;88.45;102365.91;5057646;28;20029;-79
2021/03/06 06:11:51;;;;;;;16.45;8.38;;;-4.00;99.90;;;-3.25;88.36;102364.44;5065149;28;20151;-80
2021/03/06 06:14:16;;;;;;;14.30;8.68;;;-4.00;99.90;;;-3.41;87.78;102360.41;5068187;28;20032;-80
2021/03/06 06:16:43;;;;;;;19.30;8.43;;;-4.10;99.90;;;-3.49;88.39;102363.41;5060512;28;20033;-78
2021/03/06 06:19:09;;;;;;;12.45;7.45;;;-4.20;99.90;;;-3.49;88.76;102359.84;5063121;28;20020;-80
2021/03/06 06:21:50;;;;;;;21.30;9.20;;;-4.20;99.90;;;-3.43;88.88;102367.13;5057764;28;20037;-80
2021/03/06 06:24:22;;;;;;;12.38;7.85;;;-4.20;99.90;;;-3.44;88.91;102374.50;5057351;28;20033;-81
2021/03/06 06:27:01;;;;;;;15.00;8.27;;;-4.20;99.90;;;-3.41;88.76;102376.81;5069902;28;20025;-80
2021/03/06 06:29:43;;;;;;;17.75;8.80;;;-4.10;99.90;;;-3.32;89.02;102377.34;5064126;28;20032;-79
2021/03/06 06:32:19;;;;;;;15.07;7.95;;;-4.10;99.90;;;-3.22;88.60;102385.88;5067498;28;20044;-78
2021/03/06 06:35:08;;;;;;;18.17;8.93;;;-4.00;99.90;;;-3.04;88.45;102396.81;5047879;28;20109;-80
2021/03/06 06:37:36;;;;;;;15.27;8.55;;;-3.90;99.90;;;-2.97;87.95;102397.59;5061307;28;20025;-80
2021/03/06 06:40:22;;;;;;;13.88;8.38;;;-3.90;99.90;;;-2.84;88.26;102402.09;5064755;28;20092;-79
2021/03/06 06:42:49;;;;;;;13.68;8.10;;;-3.80;99.90;;;-2.73;88.33;102406.81;5058746;28;20098;-78
2021/03/06 06:45:17;;;;;;;14.85;8.45;;;-3.70;99.90;;;-2.59;88.25;102410.22;5061736;28;20025;-81
2021/03/06 06:47:51;;;;;;;18.98;8.73;;;-3.60;99.90;;;-2.64;88.05;102413.66;5056119;28;20033;-80
2021/03/06 06:50:33;;;;;;;13.98;7.85;;;-3.60;99.90;;;-2.53;87.92;102415.59;5071712;28;20109;-80
2021/03/06 06:53:00;;;;;;;12.18;7.63;;;-3.50;99.90;;;-2.38;87.71;102416.06;5073116;28;20033;-82
2021/03/06 06:55:43;;;;;;;13.85;8.05;;;-3.30;99.90;;;-2.15;87.50;102418.91;5069342;28;20093;-80
2021/03/06 06:58:09;;;;;;;13.60;8.48;;;-3.10;99.90;;;-1.96;87.01;102419.72;5062709;28;20028;-78
2021/03/06 07:00:37;;;;;;;14.20;7.93;;;-2.90;99.90;;;-1.73;87.29;102429.91;5060467;28;20123;-79
2021/03/06 07:03:07;;;;;;;13.75;7.72;;;-2.70;99.90;;;-1.39;86.67;102425.59;5076188;28;20059;-78
2021/03/06 07:05:38;;;;;;;14.75;7.72;;;-2.40;99.90;;;-1.03;86.41;102424.56;5071588;28;20039;-78
2021/03/06 07:08:29;;;;;;;13.35;8.02;;;-2.20;99.90;;;-0.61;85.89;102423.34;5071988;28;20052;-80
2021/03/06 07:10:56;;;;;;;14.05;8.10;;;-1.80;99.90;;;-0.22;84.54;102419.78;5050442;28;20061;-80
2021/03/06 07:13:23;;;;;;;12.45;7.47;;;-1.50;99.90;;;0.03;82.49;102422.22;5051375;28;20037;-80
2021/03/06 07:15:56;;;;;;;12.13;7.32;;;-1.30;99.90;;;0.19;81.87;102428.84;5052234;28;20037;-81
2021/03/06 07:18:22;;;;;;;13.07;7.55;;;-1.10;99.90;;;0.32;81.50;102429.34;5046381;28;20026;-79
2021/03/06 07:20:49;;;;;;;13.35;6.65;;;-1.00;99.90;;;0.62;80.70;102436.47;5043966;28;20040;-79
2021/03/06 07:23:23;;;;;;;15.25;7.25;;;-0.70;99.90;;;0.76;78.81;102421.31;5047222;28;20033;-82
2021/03/06 07:25:57;;;;;;;13.77;6.65;;;-0.60;99.90;;;0.95;78.41;102428.22;5056334;28;20088;-81
2021/03/06 07:28:24;;;;;;;14.13;6.85;;;-0.50;99.90;;;1.08;78.00;102416.88;5074018;28;20025;-80
2021/03/06 07:30:54;;;;;;;11.65;6.72;;;-0.20;99.90;;;1.33;77.71;102431.00;5068803;28;20005;-78
2021/03/06 07:33:24;;;;;;;11.52;5.97;;;0.00;99.90;;;1.57;76.40;102423.38;5067404;28;20391;-79
2021/03/06 07:35:55;;;;;;;16.50;7.82;;;0.20;99.90;;;1.76;75.50;102421.97;5061656;28;20013;-83
2021/03/06 07:38:22;;;;;;;10.70;6.93;;;0.40;99.90;;;2.04;74.54;102423.66;5057043;28;20045;-84
2021/03/06 07:40:58;;;;;;;14.82;7.03;;;0.60;99.90;;;2.26;73.34;102420.88;5074277;28;20022;-84
2021/03/06 07:43:33;;;;;;;26.02;11.07;;;0.80;99.90;;;2.53;72.84;102424.47;5056566;28;20041;-83
2021/03/06 07:46:00;;;;;;;13.55;7.95;;;1.10;99.90;;;2.62;71.79;102440.28;5070034;28;20089;-80
2021/03/06 07:48:36;;;;;;;9.77;6.75;;;1.30;99.90;;;2.88;71.85;102443.25;5061794;28;20025;-80
2021/03/06 07:51:05;;;;;;;15.65;7.28;;;1.50;99.90;;;3.05;71.24;102443.97;5051533;28;20060;-81
2021/03/06 07:53:30;;;;;;;11.45;7.10;;;1.70;99.90;;;3.25;70.36;102443.25;5055112;28;20029;-82
2021/03/06 07:56:03;;;;;;;15.02;7.40;;;1.90;99.90;;;3.42;69.46;102443.91;5059723;28;20165;-81
2021/03/06 07:58:51;;;;;;;15.45;8.38;;;1.90;99.90;;;3.34;68.72;102450.75;5053451;28;20037;-81
2021/03/06 08:01:32;;;;;;;12.90;6.63;;;2.00;99.90;;;3.51;68.82;102456.97;5050324;28;20125;-81
2021/03/06 08:04:01;;;;;;;10.52;6.68;;;2.10;99.90;;;3.69;68.84;102464.00;5054038;28;20049;-83
2021/03/06 08:06:29;;;;;;;16.33;7.43;;;2.20;99.90;;;3.75;67.50;102465.69;5057827;28;20435;-81
2021/03/06 08:09:06;;;;;;;14.43;6.57;;;2.30;99.90;;;3.77;67.49;102465.38;5062690;28;20029;-80
2021/03/06 08:11:40;;;;;;;11.43;6.63;;;2.30;99.90;;;3.80;67.35;102462.09;5061383;28;20083;-79
2021/03/06 08:14:35;;;;;;;14.80;7.32;;;2.40;99.90;;;3.84;67.07;102466.81;5057036;28;20061;-79
2021/03/06 08:17:01;;;;;;;11.63;7.00;;;2.40;99.90;;;4.07;66.74;102463.59;5069535;28;20056;-81
2021/03/06 08:19:30;;;;;;;14.25;6.55;;;2.60;99.90;;;4.05;64.94;102468.56;5065363;28;20083;-80
2021/03/06 08:22:14;;;;;;;12.93;7.32;;;2.80;99.90;;;4.51;65.21;102461.22;5048059;28;20056;-80
2021/03/06 08:24:40;;;;;;;13.15;7.38;;;3.00;99.90;;;4.70;64.96;102461.53;5051401;28;20500;-81
2021/03/06 08:27:07;;;;;;;14.27;7.70;;;3.20;99.90;;;5.07;64.99;102459.31;5064671;28;20083;-80
2021/03/06 08:29:39;;;;;;;13.65;8.07;;;3.40;99.90;;;5.18;64.44;102461.00;5062853;28;20028;-80
2021/03/06 08:32:24;;;;;;;13.18;8.02;;;3.60;99.90;;;5.19;63.27;102465.44;5056827;28;20075;-83
2021/03/06 08:34:59;;;;;;;12.85;7.80;;;3.70;99.90;;;5.46;63.48;102447.66;5056152;28;20039;-82
2021/03/06 08:37:24;;;;;;;13.65;7.60;;;3.90;99.90;;;5.66;62.27;102456.75;5056869;28;20084;-81
2021/03/06 08:40:08;;;;;;;15.35;8.32;;;4.10;99.90;;;5.80;62.44;102454.22;5057757;28;20044;-80
2021/03/06 08:42:48;;;;;;;15.07;7.53;;;4.20;99.90;;;5.82;60.51;102460.31;5046737;28;20033;-83
2021/03/06 08:45:29;;;;;;;16.98;9.13;;;4.30;99.90;;;5.98;59.57;102450.00;5047143;28;20052;-84
2021/03/06 08:47:58;;;;;;;19.25;11.43;;;4.40;99.90;;;6.10;59.48;102447.75;5048555;28;20075;-82
2021/03/06 08:50:27;;;;;;;21.02;11.80;;;4.50;99.90;;;6.12;58.62;102454.69;5045848;28;20040;-83
2021/03/06 08:52:56;;;;;;;19.92;11.50;;;4.70;99.90;;;6.26;58.85;102450.16;5054012;28;20485;-80
2021/03/06 08:55:27;;;;;;;19.08;11.50;;;4.60;99.90;;;6.48;57.47;102454.47;5054508;28;20116;-83
2021/03/06 08:58:13;;;;;;;23.50;12.25;;;4.80;99.90;;;6.58;56.80;102446.91;5049716;28;20056;-81
2021/03/06 09:00:51;;;;;;;21.33;12.02;;;5.00;99.90;;;7.18;55.30;102455.88;5081849;28;20104;-78
2021/03/06 09:03:25;;;;;;;25.02;12.73;;;5.40;99.90;;;7.27;53.57;102445.78;5071727;28;20037;-76
2021/03/06 09:06:00;;;;;;;22.67;12.38;;;5.60;99.90;;;7.41;52.23;102447.59;5074847;28;20026;-82
2021/03/06 09:08:28;;;;;;;26.65;14.20;;;5.80;99.90;;;7.77;51.94;102452.78;5056244;28;20033;-78
2021/03/06 09:10:58;;;;;;;27.45;14.80;;;6.00;99.90;;;7.90;51.67;102455.66;5067101;28;20063;-82
2021/03/06 09:13:31;;;;;;;28.27;15.68;;;6.10;99.90;;;8.25;50.34;102456.34;5066372;28;20092;-79
2021/03/06 09:16:07;;;;;;;26.17;15.93;;;6.40;99.90;;;8.20;49.20;102464.75;5073096;28;20028;-76
2021/03/06 09:18:36;;;;;;;;;;;6.40;99.90;;;8.19;48.96;102457.53;5067124;28;20021;-82
2021/03/06 09:21:26;;;;;;;20.60;9.27;;;6.60;99.00;;;7.69;49.34;102464.53;5057648;28;19943;-84
2021/03/06 09:23:53;;;;;;;21.15;9.77;;;6.60;96.80;;;7.40;50.14;102461.78;5071155;28;20029;-81
2021/03/06 09:26:25;;;;;;;20.42;10.35;;;6.30;97.70;;;7.86;50.94;102462.13;5063331;28;20005;-81
2021/03/06 09:28:56;;;;;;;24.88;11.13;;;6.50;99.90;;;8.08;50.08;102467.16;5052752;28;20100;-82
2021/03/06 09:31:30;;;;;;;25.60;12.43;;;6.70;98.90;;;8.60;48.75;102463.41;5059669;28;20116;-83
2021/03/06 09:33:59;;;;;;;26.90;13.85;;;7.00;96.50;;;8.54;48.63;102468.19;5047552;28;20071;-81
2021/03/06 09:36:31;;;;;;;29.77;13.30;;;7.00;95.90;;;8.24;49.17;102468.59;5051253;28;20059;-81
2021/03/06 09:39:04;;;;;;;25.60;12.00;;;7.00;94.90;;;8.16;49.33;102475.66;5054451;28;20033;-84
2021/03/06 09:41:38;;;;;;;14.20;7.80;;;6.80;95.80;;;7.74;50.79;102475.59;5057213;28;20021;-79
2021/03/06 09:44:09;;;;;;;20.92;9.50;;;6.60;97.00;;;8.25;49.17;102481.41;5046229;28;20025;-81
2021/03/06 09:46:38;;;;;;;21.33;9.00;;;6.70;96.40;;;7.96;49.43;102479.50;5044667;28;20400;-84
2021/03/06 09:49:09;;;;;;;21.95;8.13;;;6.60;96.20;;;8.46;48.93;102471.66;5034335;28;20021;-84
2021/03/06 09:51:55;;;;;;;13.73;6.95;;;6.80;97.20;;;8.90;47.93;102474.06;5034410;28;20032;-82
2021/03/06 09:54:25;;;;;;;13.63;5.55;;;7.30;94.80;;;8.77;47.12;102481.22;5039321;28;20055;-83
2021/03/06 09:56:59;;;;;;;11.85;5.30;;;7.40;92.20;;;8.43;48.51;102480.63;5049981;28;20080;-82
2021/03/06 09:59:38;;;;;;;12.18;6.05;;;7.20;92.00;;;8.29;48.09;102474.13;5040607;28;20020;-82
2021/03/06 10:02:08;;;;;;;10.23;4.55;;;7.20;91.30;;;8.30;48.65;102479.41;5054106;28;20397;-81
2021/03/06 10:04:35;;;;;;;8.35;3.65;;;7.00;93.20;;;8.67;48.01;102475.81;5058376;28;20029;-80
2021/03/06 10:07:10;;;;;;;7.75;3.58;;;7.00;93.20;;;8.55;49.18;102477.38;5056374;28;20025;-84
2021/03/06 10:09:38;;;;;;;6.15;2.78;;;7.00;94.90;;;8.79;47.22;102478.16;5070796;28;20077;-83
2021/03/06 10:12:15;;;;;;;7.18;2.05;;;7.10;92.30;;;8.29;48.05;102474.13;5072395;28;20033;-81
2021/03/06 10:14:46;;;;;;;3.63;1.33;;;7.10;91.40;;;8.37;48.01;102470.69;5068298;28;20025;-81
2021/03/06 10:17:22;;;;;;;6.22;2.10;;;7.00;92.30;;;8.69;48.30;102467.16;5043805;28;20033;-82
2021/03/06 10:19:52;;;;;;;11.07;3.58;;;7.10;93.60;;;8.71;47.81;102468.50;5051732;28;20065;-81
2021/03/06 10:22:21;;;;;;;5.68;1.65;;;7.30;92.40;;;9.07;45.79;102457.63;5053269;28;20417;-82
2021/03/06 10:25:03;;;;;;;6.30;1.42;;;7.50;88.70;;;9.23;45.65;102456.25;5053087;28;20028;-80
2021/03/06 10:27:46;;;;;;;5.32;1.75;;;7.50;88.70;;;9.18;45.71;102458.28;5050231;28;20033;-77